Pagrindinis puslapis
METAR-TAF:

METAR-TAF

Oro uostai :

San Gabriel da Kašoeira, Amazonė, Brazilija

platuma: 00-08S, ilguma: 067-05W, Aukštis: 90 m

Dabartinis oras

Ataskaita buvo paskelbta 1 valandą ir 21 minutes, ne 17:00 UTC
Vėjas 6 kt iš Pietų/Pietryčių, svyruoja nuo Rytų/Šiaurės Rytų ir Pietų
Temperatūra 33°C
Drėgmė 67%
Slėgis 1009 hPa
Matomumas 10 km arba daugiau
Išsisklaidę debesys ne aukštis 2500 ft
Išsisklaidę debesys ne aukštis 8000 ft

METAR: SBUA 171700Z 15006KT 070V190 9999 SCT025 SCT080 33/26 Q1009

Laikas: 14:21 (18:21 UTC)


TAF: trūkstamas

Orai ataskaitas ir orų prognozės (METAR, TAF).

turimą stotys yra geltonos ir raudonos taškus žemėlapyje.

Perkelti pele per norėdami pamatyti stoties vardą.

Tada spustelėkite, norėdami matyti oro stebėjimo ir prognozės.

Norėdami pakeisti žemėlapį: spustelėkite ant žalios mygtukų su juodo kryžiaus žemyn,; žalią mygtuką su brūkšneliu, jei norite nutolinti; arba žalių rodyklių gretimoms žemėlapius.


METAR-TAF: